createdAt,value
2018-09-05T00:01:47.176Z,17.1
2018-09-05T00:06:47.106Z,17.1
2018-09-05T00:12:02.111Z,17.1
2018-09-05T00:17:01.842Z,17.1
2018-09-05T00:22:02.083Z,17.1
2018-09-05T00:27:01.978Z,17
2018-09-05T00:32:02.025Z,17.1
2018-09-05T00:37:01.831Z,17.1
2018-09-05T00:42:01.861Z,17.1
2018-09-05T00:47:01.838Z,17
2018-09-05T00:52:02.054Z,17
2018-09-05T00:57:01.968Z,17
2018-09-05T01:02:02.007Z,17
2018-09-05T01:07:02.059Z,17
2018-09-05T01:12:04.028Z,17
2018-09-05T01:17:03.960Z,17.1
2018-09-05T01:22:16.687Z,17.1
2018-09-05T01:27:16.631Z,17
2018-09-05T01:32:16.396Z,17
2018-09-05T01:37:16.596Z,17
2018-09-05T01:42:16.411Z,17
2018-09-05T01:47:16.414Z,17
2018-09-05T01:52:16.435Z,17
2018-09-05T01:57:17.901Z,17
2018-09-05T02:02:17.778Z,17
2018-09-05T02:07:29.966Z,17.1
2018-09-05T02:12:29.830Z,17
2018-09-05T02:17:29.889Z,17
2018-09-05T02:22:29.910Z,17
2018-09-05T02:27:29.936Z,17
2018-09-05T02:32:32.306Z,16.9
2018-09-05T02:37:32.149Z,17
2018-09-05T02:42:32.021Z,17
2018-09-05T02:47:32.248Z,17
2018-09-05T02:52:32.267Z,17
2018-09-05T02:57:32.187Z,17
2018-09-05T03:02:32.215Z,17
2018-09-05T03:07:32.964Z,17
2018-09-05T03:12:32.918Z,16.9
2018-09-05T03:17:45.108Z,16.9
2018-09-05T03:22:45.055Z,16.9
2018-09-05T03:27:44.834Z,16.9
2018-09-05T03:32:45.043Z,16.9
2018-09-05T03:37:44.944Z,16.9
2018-09-05T03:42:44.838Z,16.9
2018-09-05T03:47:44.830Z,16.9
2018-09-05T03:52:44.980Z,17
2018-09-05T03:57:45.193Z,17
2018-09-05T04:02:57.487Z,16.9
2018-09-05T04:07:57.449Z,16.9
2018-09-05T04:12:57.344Z,16.9
2018-09-05T04:17:57.411Z,16.9
2018-09-05T04:22:57.235Z,17
2018-09-05T04:27:57.240Z,17
2018-09-05T04:32:57.406Z,16.9
2018-09-05T04:37:58.073Z,16.9
2018-09-05T04:42:57.990Z,16.9
2018-09-05T04:48:10.529Z,16.9
2018-09-05T04:53:10.314Z,16.9
2018-09-05T04:58:10.351Z,16.8
2018-09-05T05:03:10.375Z,16.9
2018-09-05T05:08:10.371Z,16.9
2018-09-05T05:13:10.378Z,17
2018-09-05T05:18:10.416Z,17
2018-09-05T05:23:12.328Z,17.1
2018-09-05T05:28:12.222Z,17.1
2018-09-05T05:33:24.628Z,17.2
2018-09-05T05:38:24.367Z,17.2
2018-09-05T05:43:24.362Z,17.2
2018-09-05T05:48:24.370Z,17.3
2018-09-05T05:53:24.583Z,17.3
2018-09-05T05:58:24.509Z,17.4
2018-09-05T06:03:24.330Z,17.5
2018-09-05T06:08:25.404Z,17.6
2018-09-05T06:13:25.334Z,17.7
2018-09-05T06:18:37.922Z,17.7
2018-09-05T06:23:37.666Z,17.6
2018-09-05T06:28:37.819Z,17.8
2018-09-05T06:33:37.833Z,17.9
2018-09-05T06:38:37.762Z,18
2018-09-05T06:43:37.678Z,18.2
2018-09-05T06:48:37.859Z,18.5
2018-09-05T06:53:38.118Z,18.8
2018-09-05T06:58:38.024Z,19.1
2018-09-05T07:03:50.385Z,19.2
2018-09-05T07:08:50.289Z,19.1
2018-09-05T07:13:50.038Z,19.2
2018-09-05T07:18:50.243Z,19.4
2018-09-05T07:23:50.289Z,19.5
2018-09-05T07:28:50.082Z,19.6
2018-09-05T07:33:50.240Z,19.6
2018-09-05T07:38:50.196Z,19.6
2018-09-05T07:43:50.408Z,20
2018-09-05T07:48:50.241Z,19.9
2018-09-05T07:53:50.106Z,19.7
2018-09-05T07:58:50.314Z,19.5
2018-09-05T08:03:50.694Z,19.6
2018-09-05T08:08:50.399Z,19.7
2018-09-05T08:14:05.788Z,20
2018-09-05T08:19:05.715Z,20.1
2018-09-05T08:24:05.528Z,20.4
2018-09-05T08:29:05.693Z,20.9
2018-09-05T08:39:15.502Z,21.3
2018-09-05T08:44:15.510Z,20.7
2018-09-05T08:49:15.439Z,21
2018-09-05T08:54:15.361Z,21.3
2018-09-05T08:59:15.212Z,21.4
2018-09-05T09:04:15.452Z,21.8
2018-09-05T09:09:15.341Z,21.9
2018-09-05T09:14:15.551Z,21.8
2018-09-05T09:19:15.410Z,21.7
2018-09-05T09:24:28.152Z,22.1
2018-09-05T09:29:28.106Z,22.3
2018-09-05T09:34:28.026Z,22
2018-09-05T09:39:27.895Z,21.8
2018-09-05T09:44:27.905Z,21.7
2018-09-05T09:49:28.021Z,22.3
2018-09-05T09:54:27.918Z,22.6
2018-09-05T09:59:28.749Z,22.5
2018-09-05T10:04:28.639Z,23.1
2018-09-05T10:09:40.810Z,23.5
2018-09-05T10:14:40.458Z,23.5
2018-09-05T10:19:40.517Z,23.8
2018-09-05T10:24:40.660Z,24
2018-09-05T10:29:40.696Z,24.1
2018-09-05T10:34:40.522Z,23.6
2018-09-05T10:39:40.655Z,23.7
2018-09-05T10:44:40.518Z,23.6
2018-09-05T10:49:40.730Z,23.5
2018-09-05T10:54:52.612Z,23.3
2018-09-05T10:59:52.465Z,24
2018-09-05T11:04:52.351Z,23.7
2018-09-05T11:09:52.332Z,23.7
2018-09-05T11:14:52.328Z,23.5
2018-09-05T11:19:52.352Z,23.2
2018-09-05T11:24:53.050Z,23.4
2018-09-05T11:29:52.589Z,24
2018-09-05T11:34:52.361Z,24.2
2018-09-05T11:39:52.518Z,24.3
2018-09-05T11:44:52.670Z,24.5
2018-09-05T11:49:52.701Z,24.5
2018-09-05T11:54:54.065Z,24.1
2018-09-05T11:59:53.807Z,23.7
2018-09-05T12:05:06.581Z,24.1
2018-09-05T12:10:06.440Z,24.1
2018-09-05T12:15:06.397Z,24.4
2018-09-05T12:20:06.424Z,24.4
2018-09-05T12:25:06.467Z,24.8
2018-09-05T12:30:06.392Z,25
2018-09-05T12:35:06.269Z,24.7
2018-09-05T12:40:06.279Z,24.7
2018-09-05T12:45:06.400Z,24.8
2018-09-05T12:50:18.841Z,24.5
2018-09-05T12:55:18.515Z,24.8
2018-09-05T13:00:18.683Z,24.3
2018-09-05T13:05:18.740Z,24.8
2018-09-05T13:10:18.707Z,25
2018-09-05T13:15:18.570Z,25
2018-09-05T13:20:18.584Z,24.8
2018-09-05T13:25:18.576Z,24.6
2018-09-05T13:30:18.993Z,24.9
2018-09-05T13:35:18.783Z,24.7
2018-09-05T13:40:18.951Z,24.5
2018-09-05T13:45:19.001Z,24.8
2018-09-05T13:50:20.483Z,24.8
2018-09-05T13:55:20.395Z,24.5
2018-09-05T14:00:32.674Z,24.9
2018-09-05T14:05:33.648Z,24.8
2018-09-05T14:10:32.524Z,24.8
2018-09-05T14:15:32.566Z,24.9
2018-09-05T14:20:32.696Z,24.8
2018-09-05T14:25:32.410Z,24.9
2018-09-05T14:30:32.554Z,24.8
2018-09-05T14:35:32.624Z,24.8
2018-09-05T14:40:32.415Z,24.8
2018-09-05T14:45:45.971Z,24.9
2018-09-05T14:50:45.670Z,24.8
2018-09-05T14:55:45.669Z,24.8
2018-09-05T15:00:45.668Z,24.7
2018-09-05T15:05:45.778Z,24.7
2018-09-05T15:10:46.987Z,24.5
2018-09-05T15:15:46.720Z,24.6
2018-09-05T15:20:46.680Z,24.5
2018-09-05T15:25:46.707Z,24.4
2018-09-05T15:30:46.710Z,24.3
2018-09-05T15:35:46.708Z,24.2
2018-09-05T15:40:46.752Z,24.2
2018-09-05T15:45:47.733Z,24.2
2018-09-05T15:50:47.577Z,24.1
2018-09-05T15:56:00.180Z,24.1
2018-09-05T16:00:59.952Z,24
2018-09-05T16:05:59.933Z,23.9
2018-09-05T16:10:59.944Z,23.9
2018-09-05T16:15:59.945Z,23.8
2018-09-05T16:20:59.979Z,23.7
2018-09-05T16:25:59.938Z,23.7
2018-09-05T16:31:00.178Z,23.6
2018-09-05T16:36:00.211Z,23.5
2018-09-05T16:41:12.328Z,23.4
2018-09-05T16:46:12.069Z,23.3
2018-09-05T16:51:12.081Z,23.1
2018-09-05T16:56:12.049Z,23
2018-09-05T17:01:12.078Z,22.9
2018-09-05T17:06:12.418Z,22.7
2018-09-05T17:11:12.169Z,22.5
2018-09-05T17:16:12.075Z,22.3
2018-09-05T17:21:12.105Z,22.1
2018-09-05T17:26:12.316Z,22
2018-09-05T17:31:12.246Z,21.8
2018-09-05T17:36:12.300Z,21.6
2018-09-05T17:41:13.413Z,21.3
2018-09-05T17:46:12.963Z,21.1
2018-09-05T17:51:25.697Z,20.9
2018-09-05T17:56:25.428Z,20.8
2018-09-05T18:01:25.468Z,20.6
2018-09-05T18:06:25.436Z,20.5
2018-09-05T18:11:25.412Z,20.2
2018-09-05T18:16:25.429Z,19.9
2018-09-05T18:21:25.594Z,19.8
2018-09-05T18:26:25.778Z,19.7
2018-09-05T18:31:25.482Z,19.6
2018-09-05T18:36:39.496Z,19.5
2018-09-05T18:41:39.476Z,19.4
2018-09-05T18:46:39.323Z,19.2
2018-09-05T18:51:39.293Z,19.1
2018-09-05T18:56:39.200Z,19
2018-09-05T19:01:39.236Z,18.8
2018-09-05T19:06:39.492Z,18.8
2018-09-05T19:11:39.500Z,18.8
2018-09-05T19:16:39.479Z,18.6
2018-09-05T19:21:39.515Z,18.5
2018-09-05T19:26:39.505Z,18.4
2018-09-05T19:31:39.521Z,18.4
2018-09-05T19:36:39.496Z,18.3
2018-09-05T19:41:39.526Z,18.2
2018-09-05T19:46:52.007Z,18.1
2018-09-05T19:51:51.734Z,18
2018-09-05T19:56:51.764Z,17.8
2018-09-05T20:01:51.756Z,17.8
2018-09-05T20:06:51.743Z,17.8
2018-09-05T20:11:51.863Z,17.6
2018-09-05T20:16:51.721Z,17.6
2018-09-05T20:21:55.708Z,17.6
2018-09-05T20:26:55.428Z,17.5
2018-09-05T20:32:08.034Z,17.4
2018-09-05T20:37:07.660Z,17.4
2018-09-05T20:42:07.740Z,17.3
2018-09-05T20:47:07.677Z,17.1
2018-09-05T20:52:07.783Z,17.1
2018-09-05T20:57:07.747Z,17.1
2018-09-05T21:02:07.872Z,17
2018-09-05T21:07:07.884Z,16.9
2018-09-05T21:12:07.841Z,16.9
2018-09-05T21:17:07.962Z,16.8
2018-09-05T21:22:07.741Z,16.7
2018-09-05T21:27:07.973Z,16.7
2018-09-05T21:32:10.777Z,16.7
2018-09-05T21:37:10.528Z,16.6
2018-09-05T21:42:20.869Z,16.5
2018-09-05T21:47:20.753Z,16.5
2018-09-05T21:52:20.789Z,16.5
2018-09-05T21:57:20.830Z,16.3
2018-09-05T22:02:20.759Z,16.3
2018-09-05T22:07:20.634Z,16.3
2018-09-05T22:12:20.629Z,16.1
2018-09-05T22:17:21.104Z,16.1
2018-09-05T22:22:21.005Z,16
2018-09-05T22:27:34.186Z,15.9
2018-09-05T22:32:33.906Z,15.9
2018-09-05T22:37:33.916Z,15.9
2018-09-05T22:42:33.908Z,15.8
2018-09-05T22:47:34.019Z,15.8
2018-09-05T22:52:33.925Z,15.8
2018-09-05T22:57:33.935Z,15.6
2018-09-05T23:02:33.928Z,15.7
2018-09-05T23:07:34.112Z,15.6
2018-09-05T23:12:34.043Z,15.5
2018-09-05T23:17:34.176Z,15.5
2018-09-05T23:22:34.018Z,15.4
2018-09-05T23:27:34.371Z,15.4
2018-09-05T23:32:34.105Z,15.2
2018-09-05T23:37:46.377Z,15.2
2018-09-05T23:42:46.110Z,15.2
2018-09-05T23:47:46.263Z,15.2
2018-09-05T23:52:46.088Z,15.1
2018-09-05T23:57:46.093Z,15
